createdAt,value
2023-01-31T00:01:52.902Z,8.50
2023-01-31T00:04:20.849Z,7.67
2023-01-31T00:06:52.072Z,8.40
2023-01-31T00:09:20.560Z,8.07
2023-01-31T00:11:48.509Z,8.43
2023-01-31T00:14:20.745Z,8.37
2023-01-31T00:16:48.889Z,7.73
2023-01-31T00:19:17.477Z,7.50
2023-01-31T00:21:45.861Z,9.03
2023-01-31T00:24:15.576Z,8.53
2023-01-31T00:26:43.892Z,7.97
2023-01-31T00:29:12.243Z,7.63
2023-01-31T00:31:40.415Z,6.20
2023-01-31T00:34:08.585Z,6.40
2023-01-31T00:36:37.647Z,7.10
2023-01-31T00:39:08.132Z,7.23
2023-01-31T00:41:39.339Z,7.07
2023-01-31T00:44:07.756Z,6.70
2023-01-31T00:46:36.625Z,6.53
2023-01-31T00:49:04.893Z,6.17
2023-01-31T00:51:32.810Z,7.40
2023-01-31T00:54:00.724Z,7.27
2023-01-31T00:56:29.129Z,6.37
2023-01-31T00:58:58.373Z,6.97
2023-01-31T01:01:28.406Z,7.27
2023-01-31T01:03:57.711Z,6.30
2023-01-31T01:06:26.556Z,6.37
2023-01-31T01:08:55.535Z,6.70
2023-01-31T01:11:25.245Z,6.30
2023-01-31T01:13:53.622Z,6.70
2023-01-31T01:16:25.257Z,6.20
2023-01-31T01:18:55.045Z,6.17
2023-01-31T01:21:24.504Z,6.50
2023-01-31T01:23:52.995Z,6.30
2023-01-31T01:26:25.454Z,6.57
2023-01-31T01:28:54.400Z,6.07
2023-01-31T01:31:30.480Z,6.30
2023-01-31T01:34:00.226Z,6.50
2023-01-31T01:36:29.246Z,6.20
2023-01-31T01:38:57.374Z,6.47
2023-01-31T01:41:25.380Z,6.93
2023-01-31T01:43:55.596Z,6.90
2023-01-31T01:46:30.484Z,5.67
2023-01-31T01:49:02.020Z,5.90
2023-01-31T01:51:32.050Z,5.73
2023-01-31T01:54:04.271Z,6.07
2023-01-31T01:56:37.425Z,6.03
2023-01-31T01:59:10.069Z,6.33
2023-01-31T02:01:40.238Z,5.40
2023-01-31T02:04:14.821Z,6.27
2023-01-31T02:06:44.930Z,6.73
2023-01-31T02:09:19.893Z,6.77
2023-01-31T02:11:47.835Z,6.30
2023-01-31T02:14:16.808Z,6.43
2023-01-31T02:16:46.980Z,5.73
2023-01-31T02:19:22.222Z,5.47
2023-01-31T02:22:15.502Z,5.97
2023-01-31T02:25:34.645Z,6.87
2023-01-31T02:28:32.668Z,6.03
2023-01-31T02:31:41.461Z,6.60
2023-01-31T02:34:17.713Z,6.40
2023-01-31T02:36:57.010Z,6.57
2023-01-31T02:39:45.062Z,6.33
2023-01-31T02:42:23.824Z,6.70
2023-01-31T02:44:59.478Z,6.13
2023-01-31T02:47:36.811Z,6.80
2023-01-31T02:50:13.985Z,6.23
2023-01-31T02:52:49.758Z,6.37
2023-01-31T02:55:40.508Z,6.33
2023-01-31T02:58:10.821Z,5.47
2023-01-31T03:00:44.549Z,6.40
2023-01-31T03:03:21.574Z,5.80
2023-01-31T03:06:33.442Z,5.20
2023-01-31T03:09:07.391Z,5.17
2023-01-31T03:11:44.951Z,5.30
2023-01-31T03:14:23.973Z,5.00
2023-01-31T03:17:15.423Z,5.40
2023-01-31T03:19:50.941Z,5.60
2023-01-31T03:22:27.108Z,5.03
2023-01-31T03:24:56.098Z,4.67
2023-01-31T03:27:24.723Z,4.90
2023-01-31T03:30:02.174Z,4.13
2023-01-31T03:32:34.875Z,3.90
2023-01-31T03:35:03.669Z,4.60
2023-01-31T03:37:40.593Z,4.37
2023-01-31T03:40:18.577Z,4.73
2023-01-31T03:42:52.369Z,3.70
2023-01-31T03:45:26.769Z,4.37
2023-01-31T03:47:57.604Z,3.80
2023-01-31T03:50:29.789Z,4.07
2023-01-31T03:53:05.905Z,4.40
2023-01-31T03:55:38.036Z,3.93
2023-01-31T03:58:07.933Z,3.33
2023-01-31T04:00:39.449Z,4.33
2023-01-31T04:03:16.311Z,3.70
2023-01-31T04:05:45.157Z,4.10
2023-01-31T04:08:14.687Z,3.60
2023-01-31T04:10:45.956Z,4.00
2023-01-31T04:13:14.100Z,3.40
2023-01-31T04:15:42.043Z,3.27
2023-01-31T04:18:10.190Z,3.50
2023-01-31T04:20:38.123Z,3.63
2023-01-31T04:23:06.114Z,3.77
2023-01-31T04:25:35.362Z,4.37
2023-01-31T04:28:03.377Z,4.27
2023-01-31T04:30:31.289Z,3.63
2023-01-31T04:33:00.016Z,3.20
2023-01-31T04:35:28.104Z,4.03
2023-01-31T04:37:56.046Z,3.67
2023-01-31T04:40:23.969Z,4.00
2023-01-31T04:42:53.278Z,3.43
2023-01-31T04:45:21.614Z,3.30
2023-01-31T04:47:49.836Z,3.30
2023-01-31T04:50:18.127Z,3.53
2023-01-31T04:52:47.266Z,3.60
2023-01-31T04:55:15.222Z,5.27
2023-01-31T04:57:43.347Z,3.93
2023-01-31T05:00:13.986Z,3.77
2023-01-31T05:02:42.185Z,3.63
2023-01-31T05:05:12.726Z,3.90
2023-01-31T05:07:41.082Z,3.17
2023-01-31T05:10:10.441Z,3.80
2023-01-31T05:12:38.336Z,3.40
2023-01-31T05:15:08.269Z,3.80
2023-01-31T05:17:37.577Z,3.70
2023-01-31T05:20:06.604Z,3.60
2023-01-31T05:22:34.640Z,3.73
2023-01-31T05:25:02.868Z,3.40
2023-01-31T05:27:31.507Z,4.03
2023-01-31T05:30:00.612Z,4.03
2023-01-31T05:32:28.680Z,3.63
2023-01-31T05:34:57.989Z,4.27
2023-01-31T05:37:25.999Z,3.40
2023-01-31T05:39:53.877Z,3.60
2023-01-31T05:42:21.797Z,3.53
2023-01-31T05:44:49.678Z,3.23
2023-01-31T05:47:17.589Z,3.33
2023-01-31T05:49:45.513Z,3.47
2023-01-31T05:52:14.793Z,3.17
2023-01-31T05:54:42.741Z,3.37
2023-01-31T05:57:10.857Z,3.90
2023-01-31T05:59:38.784Z,3.50
2023-01-31T06:02:06.914Z,3.23
2023-01-31T06:04:35.012Z,3.47
2023-01-31T06:07:02.938Z,3.50
2023-01-31T06:09:32.256Z,3.20
2023-01-31T06:12:00.893Z,2.97
2023-01-31T06:14:28.844Z,3.67
2023-01-31T06:16:56.747Z,3.67
2023-01-31T06:19:25.467Z,3.30
2023-01-31T06:21:53.755Z,3.17
2023-01-31T06:24:23.303Z,2.83
2023-01-31T06:26:52.622Z,3.30
2023-01-31T06:29:20.595Z,2.93
2023-01-31T06:31:48.639Z,6.23
2023-01-31T06:34:16.993Z,6.17
2023-01-31T06:36:45.236Z,5.73
2023-01-31T06:39:14.231Z,3.90
2023-01-31T06:41:42.202Z,3.30
2023-01-31T06:44:11.502Z,3.10
2023-01-31T06:46:39.651Z,3.10
2023-01-31T06:49:07.570Z,3.83
2023-01-31T06:51:35.540Z,3.70
2023-01-31T06:54:03.569Z,3.80
2023-01-31T06:56:31.545Z,3.50
2023-01-31T06:58:59.514Z,3.90
2023-01-31T07:01:28.942Z,3.20
2023-01-31T07:03:56.905Z,4.10
2023-01-31T07:06:24.901Z,2.70
2023-01-31T07:08:52.808Z,3.43
2023-01-31T07:11:20.740Z,3.60
2023-01-31T07:13:50.286Z,3.43
2023-01-31T07:16:19.735Z,3.70
2023-01-31T07:18:49.096Z,3.80
2023-01-31T07:21:17.012Z,3.53
2023-01-31T07:23:45.686Z,3.30
2023-01-31T07:26:14.054Z,4.03
2023-01-31T07:28:42.088Z,4.03
2023-01-31T07:31:13.017Z,3.63
2023-01-31T07:33:41.829Z,3.43
2023-01-31T07:36:14.074Z,3.30
2023-01-31T07:38:42.572Z,2.87
2023-01-31T07:41:12.054Z,3.10
2023-01-31T07:43:40.056Z,3.47
2023-01-31T07:46:11.007Z,3.03
2023-01-31T07:48:39.322Z,2.90
2023-01-31T07:51:07.886Z,3.27
2023-01-31T07:53:41.923Z,3.40
2023-01-31T07:56:12.479Z,3.43
2023-01-31T07:58:41.851Z,3.63
2023-01-31T08:01:31.906Z,3.90
2023-01-31T08:04:10.722Z,3.23
2023-01-31T08:06:44.605Z,3.17
2023-01-31T08:09:14.301Z,3.57
2023-01-31T08:11:42.746Z,2.90
2023-01-31T08:14:10.686Z,3.30
2023-01-31T08:16:38.681Z,3.27
2023-01-31T08:19:07.057Z,2.73
2023-01-31T08:21:35.069Z,3.00
2023-01-31T08:24:03.061Z,2.70
2023-01-31T08:26:32.814Z,2.77
2023-01-31T08:29:00.845Z,2.87
2023-01-31T08:31:29.719Z,3.03
2023-01-31T08:33:57.855Z,3.03
2023-01-31T08:36:28.286Z,2.77
2023-01-31T08:38:57.423Z,3.00
2023-01-31T08:41:27.118Z,3.33
2023-01-31T08:43:58.938Z,3.00
2023-01-31T08:46:31.453Z,2.90
2023-01-31T08:48:59.601Z,3.10
2023-01-31T08:51:27.716Z,2.50
2023-01-31T08:53:55.853Z,3.60
2023-01-31T08:56:26.015Z,2.53
2023-01-31T08:58:54.856Z,2.13
2023-01-31T09:01:24.723Z,2.97
2023-01-31T09:03:56.663Z,2.70
2023-01-31T09:06:27.210Z,2.87
2023-01-31T09:08:56.866Z,3.27
2023-01-31T09:11:24.754Z,4.73
2023-01-31T09:13:52.809Z,3.80
2023-01-31T09:16:21.328Z,3.33
2023-01-31T09:18:51.623Z,3.00
2023-01-31T09:21:21.669Z,3.07
2023-01-31T09:23:50.547Z,2.97
2023-01-31T09:26:18.523Z,3.03
2023-01-31T09:28:46.489Z,3.70
2023-01-31T09:31:16.751Z,3.13
2023-01-31T09:33:45.377Z,4.47
2023-01-31T09:36:16.591Z,3.50
2023-01-31T09:38:44.841Z,3.10
2023-01-31T09:41:20.195Z,3.07
2023-01-31T09:43:55.647Z,3.57
2023-01-31T09:46:27.728Z,3.07
2023-01-31T09:48:58.299Z,3.00
2023-01-31T09:51:27.661Z,2.67
2023-01-31T09:53:56.935Z,3.10
2023-01-31T09:56:33.181Z,3.33
2023-01-31T09:59:08.053Z,3.13
2023-01-31T10:01:43.785Z,3.53
2023-01-31T10:04:31.709Z,3.50
2023-01-31T10:07:06.607Z,3.13
2023-01-31T10:09:38.774Z,2.63
2023-01-31T10:12:13.918Z,3.40
2023-01-31T10:14:46.885Z,3.37
2023-01-31T10:17:19.021Z,3.53
2023-01-31T10:19:53.192Z,3.00
2023-01-31T10:22:30.510Z,3.23
2023-01-31T10:25:03.338Z,3.33
2023-01-31T10:27:43.573Z,2.93
2023-01-31T10:30:18.971Z,3.30
2023-01-31T10:32:51.721Z,3.67
2023-01-31T10:35:25.187Z,2.83
2023-01-31T10:37:58.600Z,3.30
2023-01-31T10:40:33.804Z,4.07
2023-01-31T10:43:11.758Z,3.53
2023-01-31T10:45:40.609Z,3.50
2023-01-31T10:48:16.591Z,2.97
2023-01-31T10:50:57.886Z,3.77
2023-01-31T10:53:46.383Z,3.13
2023-01-31T10:56:21.140Z,3.57
2023-01-31T10:58:49.582Z,2.97
2023-01-31T11:01:17.589Z,2.87
2023-01-31T11:03:50.667Z,3.13
2023-01-31T11:06:19.564Z,3.10
2023-01-31T11:08:51.508Z,3.27
2023-01-31T11:11:21.480Z,3.23
2023-01-31T11:14:00.834Z,3.10
2023-01-31T11:16:33.773Z,3.03
2023-01-31T11:19:05.569Z,3.33
2023-01-31T11:21:35.390Z,3.40
2023-01-31T11:24:06.886Z,3.00
2023-01-31T11:26:37.753Z,3.00
2023-01-31T11:29:16.506Z,2.97
2023-01-31T11:31:47.578Z,2.90
2023-01-31T11:34:25.059Z,3.37
2023-01-31T11:36:53.860Z,3.33
2023-01-31T11:39:31.584Z,3.03
2023-01-31T11:42:06.780Z,3.20
2023-01-31T11:44:34.989Z,2.80
2023-01-31T11:47:05.782Z,3.27
2023-01-31T11:49:36.585Z,3.57
2023-01-31T11:52:14.315Z,2.90
2023-01-31T11:54:48.096Z,4.40
2023-01-31T11:57:17.365Z,3.10
2023-01-31T11:59:45.409Z,3.57
2023-01-31T12:02:28.688Z,3.50
2023-01-31T12:04:57.493Z,3.20
2023-01-31T12:07:27.240Z,3.17
2023-01-31T12:09:56.574Z,3.63
2023-01-31T12:12:31.209Z,3.47
2023-01-31T12:15:03.527Z,3.90
2023-01-31T12:17:34.395Z,3.83
2023-01-31T12:20:27.966Z,3.47
2023-01-31T12:23:08.287Z,4.07
2023-01-31T12:25:49.511Z,3.70
2023-01-31T12:28:29.934Z,2.93
2023-01-31T12:31:18.986Z,2.50
2023-01-31T12:34:02.070Z,3.00
2023-01-31T12:36:47.372Z,3.20
2023-01-31T12:39:27.871Z,2.87
2023-01-31T12:42:09.074Z,2.87
2023-01-31T12:44:44.929Z,2.93
2023-01-31T12:47:41.142Z,3.77
2023-01-31T12:50:31.274Z,3.37
2023-01-31T12:53:40.075Z,3.83
2023-01-31T12:56:22.273Z,2.93
2023-01-31T12:59:13.852Z,2.50
2023-01-31T13:01:50.404Z,3.40
2023-01-31T13:04:43.845Z,2.57
2023-01-31T13:07:19.053Z,2.60
2023-01-31T13:09:48.808Z,2.80
2023-01-31T13:12:19.805Z,2.80
2023-01-31T13:14:53.018Z,3.30
2023-01-31T13:17:26.997Z,3.83
2023-01-31T13:19:59.598Z,3.07
2023-01-31T13:22:32.863Z,3.30
2023-01-31T13:25:07.600Z,3.03
2023-01-31T13:27:40.919Z,2.93
2023-01-31T13:30:18.500Z,2.80
2023-01-31T13:32:50.308Z,2.80
2023-01-31T13:35:24.364Z,2.60
2023-01-31T13:37:57.821Z,3.07
2023-01-31T13:40:28.921Z,3.00
2023-01-31T13:43:00.829Z,3.53
2023-01-31T13:45:34.519Z,3.73
2023-01-31T13:48:06.509Z,3.63
2023-01-31T13:50:39.974Z,3.80
2023-01-31T13:53:15.499Z,4.20
2023-01-31T13:55:47.414Z,3.43
2023-01-31T13:58:20.738Z,3.57
2023-01-31T14:00:51.863Z,2.93
2023-01-31T14:03:21.842Z,3.17
2023-01-31T14:05:58.613Z,3.60
2023-01-31T14:08:57.218Z,3.53
2023-01-31T14:11:36.041Z,3.10
2023-01-31T14:14:22.978Z,4.20
2023-01-31T14:16:53.369Z,3.30
2023-01-31T14:20:09.440Z,3.50
2023-01-31T14:22:40.078Z,3.47
2023-01-31T14:25:14.420Z,3.57
2023-01-31T14:28:00.970Z,4.20
2023-01-31T14:30:37.425Z,4.20
2023-01-31T14:33:15.582Z,3.90
2023-01-31T14:36:15.425Z,5.60
2023-01-31T14:39:16.680Z,4.63
2023-01-31T14:42:00.808Z,4.87
2023-01-31T14:44:41.567Z,4.70
2023-01-31T14:47:25.761Z,4.63
2023-01-31T14:50:21.233Z,4.57
2023-01-31T14:53:07.906Z,5.57
2023-01-31T14:55:50.209Z,6.53
2023-01-31T14:58:21.853Z,5.17
2023-01-31T15:00:52.824Z,6.50
2023-01-31T15:03:24.406Z,5.40
2023-01-31T15:05:56.771Z,7.10
2023-01-31T15:08:45.666Z,6.43
2023-01-31T15:11:41.891Z,7.80
2023-01-31T15:14:36.067Z,9.10
2023-01-31T15:17:17.437Z,6.33
2023-01-31T15:20:04.211Z,6.17
2023-01-31T15:22:39.933Z,4.90
2023-01-31T15:25:19.770Z,5.33
2023-01-31T15:27:48.887Z,5.53
2023-01-31T15:30:20.920Z,7.50
2023-01-31T15:32:54.440Z,5.97
2023-01-31T15:35:26.534Z,9.23
2023-01-31T15:38:01.565Z,5.37
2023-01-31T15:40:30.853Z,5.77
2023-01-31T15:43:17.204Z,4.83
2023-01-31T15:45:45.280Z,6.13
2023-01-31T15:48:14.991Z,6.93
2023-01-31T15:50:51.192Z,7.33
2023-01-31T15:53:24.162Z,5.67
2023-01-31T15:55:55.061Z,4.80
2023-01-31T15:58:25.826Z,4.93
2023-01-31T16:00:56.318Z,5.73
2023-01-31T16:03:26.509Z,6.57
2023-01-31T16:05:56.670Z,5.40
2023-01-31T16:08:29.783Z,4.90
2023-01-31T16:10:59.020Z,6.03
2023-01-31T16:13:27.863Z,6.00
2023-01-31T16:15:56.076Z,7.17
2023-01-31T16:18:24.870Z,5.47
2023-01-31T16:20:54.547Z,5.40
2023-01-31T16:23:27.980Z,10.63
2023-01-31T16:26:06.027Z,9.43
2023-01-31T16:28:40.327Z,8.53
2023-01-31T16:31:11.108Z,10.03
2023-01-31T16:33:40.062Z,7.10
2023-01-31T16:36:15.167Z,7.57
2023-01-31T16:38:57.502Z,7.97
2023-01-31T16:41:43.063Z,7.50
2023-01-31T16:44:16.625Z,7.87
2023-01-31T16:46:46.468Z,7.63
2023-01-31T16:49:21.094Z,7.97
2023-01-31T16:51:49.671Z,6.63
2023-01-31T16:54:24.720Z,7.13
2023-01-31T16:57:08.224Z,9.30
2023-01-31T16:59:48.719Z,7.30
2023-01-31T17:02:23.924Z,7.50
2023-01-31T17:04:54.367Z,9.73
2023-01-31T17:07:24.397Z,8.17
2023-01-31T17:09:57.392Z,7.40
2023-01-31T17:12:27.725Z,6.80
2023-01-31T17:15:00.796Z,7.13
2023-01-31T17:17:34.014Z,7.10
2023-01-31T17:20:02.542Z,7.63
2023-01-31T17:22:30.985Z,9.07
2023-01-31T17:25:00.646Z,8.90
2023-01-31T17:27:28.703Z,9.57
2023-01-31T17:29:56.655Z,10.10
2023-01-31T17:32:24.549Z,9.83
2023-01-31T17:34:52.475Z,9.87
2023-01-31T17:37:31.054Z,14.23
2023-01-31T17:40:01.469Z,17.40
2023-01-31T17:42:29.595Z,11.40
2023-01-31T17:44:57.577Z,9.67
2023-01-31T17:47:26.989Z,11.60
2023-01-31T17:49:55.466Z,8.83
2023-01-31T17:52:23.604Z,8.47
2023-01-31T17:54:51.578Z,7.70
2023-01-31T17:57:20.922Z,8.07
2023-01-31T17:59:48.863Z,7.37
2023-01-31T18:02:16.764Z,9.00
2023-01-31T18:04:44.760Z,8.43
2023-01-31T18:07:16.529Z,8.70
2023-01-31T18:09:45.575Z,9.00
2023-01-31T18:12:13.559Z,8.47
2023-01-31T18:14:42.983Z,14.40
2023-01-31T18:17:10.951Z,8.97
2023-01-31T18:19:39.059Z,7.47
2023-01-31T18:22:07.007Z,7.40
2023-01-31T18:24:34.998Z,8.07
2023-01-31T18:27:02.949Z,7.13
2023-01-31T18:29:31.075Z,7.47
2023-01-31T18:32:02.651Z,7.70
2023-01-31T18:34:33.136Z,8.33
2023-01-31T18:37:01.644Z,8.00
2023-01-31T18:39:29.563Z,7.77
2023-01-31T18:41:57.495Z,7.33
2023-01-31T18:44:25.588Z,6.77
2023-01-31T18:46:53.525Z,8.87
2023-01-31T18:49:22.946Z,8.37
2023-01-31T18:51:51.345Z,8.03
2023-01-31T18:54:19.599Z,8.30
2023-01-31T18:56:47.532Z,8.40
2023-01-31T18:59:15.430Z,8.20
2023-01-31T19:01:43.730Z,8.07
2023-01-31T19:04:11.713Z,8.87
2023-01-31T19:06:41.926Z,8.47
2023-01-31T19:09:11.262Z,9.70
2023-01-31T19:11:40.347Z,8.83
2023-01-31T19:14:09.203Z,8.67
2023-01-31T19:16:40.317Z,7.90
2023-01-31T19:19:09.547Z,9.00
2023-01-31T19:21:39.021Z,10.23
2023-01-31T19:24:11.803Z,10.30
2023-01-31T19:26:39.784Z,10.17
2023-01-31T19:29:09.777Z,10.17
2023-01-31T19:31:38.260Z,11.03
2023-01-31T19:34:07.723Z,11.20
2023-01-31T19:36:37.537Z,9.17
2023-01-31T19:39:08.788Z,10.50
2023-01-31T19:41:37.096Z,9.83
2023-01-31T19:44:06.120Z,10.93
2023-01-31T19:46:36.680Z,12.00
2023-01-31T19:49:05.556Z,11.07
2023-01-31T19:51:33.783Z,12.93
2023-01-31T19:54:02.966Z,11.87
2023-01-31T19:56:33.411Z,11.87
2023-01-31T19:59:01.470Z,12.57
2023-01-31T20:01:29.471Z,12.20
2023-01-31T20:03:57.583Z,12.87
2023-01-31T20:06:28.849Z,14.67
2023-01-31T20:09:00.298Z,13.07
2023-01-31T20:11:29.764Z,13.50
2023-01-31T20:14:00.479Z,13.83
2023-01-31T20:16:28.923Z,15.03
2023-01-31T20:18:56.963Z,13.23
2023-01-31T20:21:25.251Z,13.70
2023-01-31T20:23:53.343Z,12.77
2023-01-31T20:26:23.990Z,14.57
2023-01-31T20:28:52.110Z,13.50
2023-01-31T20:31:22.368Z,12.53
2023-01-31T20:33:52.109Z,13.83
2023-01-31T20:36:21.599Z,13.67
2023-01-31T20:38:51.552Z,12.77
2023-01-31T20:41:19.585Z,12.30
2023-01-31T20:43:47.629Z,12.43
2023-01-31T20:46:19.254Z,13.07
2023-01-31T20:48:48.734Z,12.17
2023-01-31T20:51:16.749Z,11.37
2023-01-31T20:53:44.777Z,11.20
2023-01-31T20:56:13.033Z,11.83
2023-01-31T20:58:43.358Z,12.77
2023-01-31T21:01:12.608Z,12.00
2023-01-31T21:03:40.582Z,12.00
2023-01-31T21:06:10.082Z,12.03
2023-01-31T21:08:45.279Z,13.03
2023-01-31T21:11:16.989Z,12.67
2023-01-31T21:13:45.129Z,11.83
2023-01-31T21:16:15.455Z,11.83
2023-01-31T21:18:44.372Z,11.93
2023-01-31T21:21:22.602Z,11.47
2023-01-31T21:23:51.980Z,12.40
2023-01-31T21:26:21.272Z,11.30
2023-01-31T21:28:49.632Z,11.90
2023-01-31T21:31:19.898Z,11.90
2023-01-31T21:33:49.580Z,12.03
2023-01-31T21:36:21.389Z,11.37
2023-01-31T21:38:49.433Z,11.67
2023-01-31T21:41:35.875Z,12.40
2023-01-31T21:44:04.254Z,12.17
2023-01-31T21:46:32.181Z,10.83
2023-01-31T21:49:01.041Z,9.97
2023-01-31T21:51:30.298Z,11.77
2023-01-31T21:53:58.228Z,10.83
2023-01-31T21:56:28.399Z,11.40
2023-01-31T21:58:56.728Z,12.10
2023-01-31T22:01:26.195Z,11.03
2023-01-31T22:03:55.060Z,11.27
2023-01-31T22:06:27.167Z,9.80
2023-01-31T22:08:58.671Z,10.10
2023-01-31T22:11:28.528Z,10.23
2023-01-31T22:13:56.543Z,10.30
2023-01-31T22:16:24.590Z,10.93
2023-01-31T22:18:53.243Z,11.00
2023-01-31T22:21:23.597Z,11.87
2023-01-31T22:23:53.619Z,11.47
2023-01-31T22:26:25.260Z,10.10
2023-01-31T22:28:55.933Z,11.37
2023-01-31T22:31:24.192Z,10.67
2023-01-31T22:33:52.316Z,10.53
2023-01-31T22:36:20.441Z,10.83
2023-01-31T22:38:48.452Z,10.50
2023-01-31T22:41:19.912Z,11.50
2023-01-31T22:43:50.905Z,11.50
2023-01-31T22:46:20.933Z,11.03
2023-01-31T22:48:49.791Z,10.87
2023-01-31T22:51:19.619Z,11.27
2023-01-31T22:53:47.969Z,11.80
2023-01-31T22:56:17.614Z,11.47
2023-01-31T22:58:45.935Z,10.87
2023-01-31T23:01:16.822Z,12.23
2023-01-31T23:03:45.307Z,11.27
2023-01-31T23:06:14.238Z,10.70
2023-01-31T23:08:43.448Z,11.97
2023-01-31T23:11:13.676Z,11.57
2023-01-31T23:13:42.655Z,11.77
2023-01-31T23:16:11.794Z,12.17
2023-01-31T23:18:41.278Z,12.30
2023-01-31T23:21:11.186Z,11.10
2023-01-31T23:23:39.141Z,11.23
2023-01-31T23:26:07.299Z,10.47
2023-01-31T23:28:35.259Z,11.13
2023-01-31T23:31:03.558Z,11.10
2023-01-31T23:33:31.489Z,9.67
2023-01-31T23:36:00.721Z,10.50
2023-01-31T23:38:28.685Z,9.00
2023-01-31T23:40:56.707Z,9.43
2023-01-31T23:43:24.730Z,9.53
2023-01-31T23:45:52.830Z,10.30
2023-01-31T23:48:21.089Z,9.73
2023-01-31T23:50:49.044Z,9.67
2023-01-31T23:53:18.328Z,10.13
2023-01-31T23:55:46.222Z,10.40
2023-01-31T23:58:14.194Z,8.83
